sensor_id;sensor_type;location;lat;lon;timestamp;temperature;humidity
72320;SHT30;60269;52.502;16.732;2022-09-03T00:01:50;9.97;86.79
72320;SHT30;60269;52.502;16.732;2022-09-03T00:05:40;10.02;86.41
72320;SHT30;60269;52.502;16.732;2022-09-03T00:09:42;10.10;86.10
72320;SHT30;60269;52.502;16.732;2022-09-03T00:13:31;9.92;86.40
72320;SHT30;60269;52.502;16.732;2022-09-03T00:21:40;9.78;87.69
72320;SHT30;60269;52.502;16.732;2022-09-03T00:29:18;9.71;88.14
72320;SHT30;60269;52.502;16.732;2022-09-03T00:33:21;9.68;88.30
72320;SHT30;60269;52.502;16.732;2022-09-03T00:37:00;9.66;88.53
72320;SHT30;60269;52.502;16.732;2022-09-03T00:41:11;9.58;88.78
72320;SHT30;60269;52.502;16.732;2022-09-03T00:53:55;9.42;89.60
72320;SHT30;60269;52.502;16.732;2022-09-03T01:02:25;9.38;89.95
72320;SHT30;60269;52.502;16.732;2022-09-03T01:06:42;9.35;90.27
72320;SHT30;60269;52.502;16.732;2022-09-03T01:10:37;9.41;90.34
72320;SHT30;60269;52.502;16.732;2022-09-03T01:14:57;9.45;90.24
72320;SHT30;60269;52.502;16.732;2022-09-03T01:31:51;9.47;89.94
72320;SHT30;60269;52.502;16.732;2022-09-03T01:35:58;9.45;90.22
72320;SHT30;60269;52.502;16.732;2022-09-03T01:39:59;9.41;90.31
72320;SHT30;60269;52.502;16.732;2022-09-03T01:48:13;9.41;90.50
72320;SHT30;60269;52.502;16.732;2022-09-03T01:52:13;9.32;90.78
72320;SHT30;60269;52.502;16.732;2022-09-03T01:56:14;9.27;91.38
72320;SHT30;60269;52.502;16.732;2022-09-03T02:00:18;9.24;90.98
72320;SHT30;60269;52.502;16.732;2022-09-03T02:04:00;9.23;91.18
72320;SHT30;60269;52.502;16.732;2022-09-03T02:08:04;9.31;91.06
72320;SHT30;60269;52.502;16.732;2022-09-03T02:11:48;9.32;90.84
72320;SHT30;60269;52.502;16.732;2022-09-03T02:15:51;9.37;90.91
72320;SHT30;60269;52.502;16.732;2022-09-03T02:19:51;9.35;90.92
72320;SHT30;60269;52.502;16.732;2022-09-03T02:23:29;9.31;90.80
72320;SHT30;60269;52.502;16.732;2022-09-03T02:27:28;9.35;90.84
72320;SHT30;60269;52.502;16.732;2022-09-03T02:31:13;9.24;90.91
72320;SHT30;60269;52.502;16.732;2022-09-03T02:35:05;9.18;91.32
72320;SHT30;60269;52.502;16.732;2022-09-03T02:38:50;9.20;91.35
72320;SHT30;60269;52.502;16.732;2022-09-03T02:42:43;9.18;91.39
72320;SHT30;60269;52.502;16.732;2022-09-03T02:46:23;9.16;91.43
72320;SHT30;60269;52.502;16.732;2022-09-03T02:50:16;9.06;91.70
72320;SHT30;60269;52.502;16.732;2022-09-03T02:54:01;9.14;91.67
72320;SHT30;60269;52.502;16.732;2022-09-03T02:57:58;9.17;91.47
72320;SHT30;60269;52.502;16.732;2022-09-03T03:01:37;9.03;91.44
72320;SHT30;60269;52.502;16.732;2022-09-03T03:05:39;9.07;91.52
72320;SHT30;60269;52.502;16.732;2022-09-03T03:09:25;8.91;92.17
72320;SHT30;60269;52.502;16.732;2022-09-03T03:13:17;8.93;92.10
72320;SHT30;60269;52.502;16.732;2022-09-03T03:17:02;9.00;91.87
72320;SHT30;60269;52.502;16.732;2022-09-03T03:20:47;8.96;92.05
72320;SHT30;60269;52.502;16.732;2022-09-03T03:24:32;9.03;91.78
72320;SHT30;60269;52.502;16.732;2022-09-03T03:28:24;9.04;91.52
72320;SHT30;60269;52.502;16.732;2022-09-03T03:32:03;8.96;91.68
72320;SHT30;60269;52.502;16.732;2022-09-03T03:35:55;9.00;91.58
72320;SHT30;60269;52.502;16.732;2022-09-03T03:39:40;8.93;91.79
72320;SHT30;60269;52.502;16.732;2022-09-03T03:43:32;8.96;91.54
72320;SHT30;60269;52.502;16.732;2022-09-03T03:47:10;8.96;91.33
72320;SHT30;60269;52.502;16.732;2022-09-03T03:51:04;8.83;91.70
72320;SHT30;60269;52.502;16.732;2022-09-03T03:54:51;8.93;91.58
72320;SHT30;60269;52.502;16.732;2022-09-03T03:58:43;8.86;91.69
72320;SHT30;60269;52.502;16.732;2022-09-03T04:02:28;8.87;91.59
72320;SHT30;60269;52.502;16.732;2022-09-03T04:06:20;8.83;91.77
72320;SHT30;60269;52.502;16.732;2022-09-03T04:09:58;8.90;91.54
72320;SHT30;60269;52.502;16.732;2022-09-03T04:13:51;8.89;91.48
72320;SHT30;60269;52.502;16.732;2022-09-03T04:17:36;8.99;91.18
72320;SHT30;60269;52.502;16.732;2022-09-03T04:21:23;8.89;91.31
72320;SHT30;60269;52.502;16.732;2022-09-03T04:25:08;9.01;90.97
72320;SHT30;60269;52.502;16.732;2022-09-03T04:29:05;9.00;90.90
72320;SHT30;60269;52.502;16.732;2022-09-03T04:32:50;8.91;91.32
72320;SHT30;60269;52.502;16.732;2022-09-03T04:36:36;8.89;91.46
72320;SHT30;60269;52.502;16.732;2022-09-03T04:40:21;8.97;91.45
72320;SHT30;60269;52.502;16.732;2022-09-03T04:44:13;9.16;90.66
72320;SHT30;60269;52.502;16.732;2022-09-03T04:48:00;9.20;90.35
72320;SHT30;60269;52.502;16.732;2022-09-03T04:51:54;9.26;90.37
72320;SHT30;60269;52.502;16.732;2022-09-03T04:55:34;9.30;90.35
72320;SHT30;60269;52.502;16.732;2022-09-03T04:59:26;9.37;90.18
72320;SHT30;60269;52.502;16.732;2022-09-03T05:03:11;9.54;89.55
72320;SHT30;60269;52.502;16.732;2022-09-03T05:07:03;9.63;89.17
72320;SHT30;60269;52.502;16.732;2022-09-03T05:10:41;9.71;88.87
72320;SHT30;60269;52.502;16.732;2022-09-03T05:14:33;9.86;88.40
72320;SHT30;60269;52.502;16.732;2022-09-03T05:18:11;9.99;87.87
72320;SHT30;60269;52.502;16.732;2022-09-03T05:22:03;10.12;87.48
72320;SHT30;60269;52.502;16.732;2022-09-03T05:26:04;10.27;86.85
72320;SHT30;60269;52.502;16.732;2022-09-03T05:29:57;10.44;86.10
72320;SHT30;60269;52.502;16.732;2022-09-03T05:33:47;10.60;85.45
72320;SHT30;60269;52.502;16.732;2022-09-03T05:37:39;10.75;84.97
72320;SHT30;60269;52.502;16.732;2022-09-03T05:41:17;10.95;84.02
72320;SHT30;60269;52.502;16.732;2022-09-03T05:45:16;11.10;83.33
72320;SHT30;60269;52.502;16.732;2022-09-03T05:48:54;11.40;82.68
72320;SHT30;60269;52.502;16.732;2022-09-03T05:52:53;11.81;80.45
72320;SHT30;60269;52.502;16.732;2022-09-03T05:56:52;12.18;79.16
72320;SHT30;60269;52.502;16.732;2022-09-03T06:00:30;12.87;76.26
72320;SHT30;60269;52.502;16.732;2022-09-03T06:04:29;13.36;73.56
72320;SHT30;60269;52.502;16.732;2022-09-03T06:08:28;13.89;70.95
72320;SHT30;60269;52.502;16.732;2022-09-03T06:12:07;14.20;69.46
72320;SHT30;60269;52.502;16.732;2022-09-03T06:16:06;14.58;67.98
72320;SHT30;60269;52.502;16.732;2022-09-03T06:19:44;14.88;66.54
72320;SHT30;60269;52.502;16.732;2022-09-03T06:23:51;15.16;65.85
72320;SHT30;60269;52.502;16.732;2022-09-03T06:27:50;15.54;63.89
72320;SHT30;60269;52.502;16.732;2022-09-03T06:31:28;15.62;62.82
72320;SHT30;60269;52.502;16.732;2022-09-03T06:35:27;15.72;62.26
72320;SHT30;60269;52.502;16.732;2022-09-03T06:39:19;16.33;61.29
72320;SHT30;60269;52.502;16.732;2022-09-03T06:43:18;16.30;60.28
72320;SHT30;60269;52.502;16.732;2022-09-03T06:46:56;16.57;59.31
72320;SHT30;60269;52.502;16.732;2022-09-03T06:51:01;16.74;58.00
72320;SHT30;60269;52.502;16.732;2022-09-03T06:54:39;17.21;57.20
72320;SHT30;60269;52.502;16.732;2022-09-03T06:58:44;17.52;56.07
72320;SHT30;60269;52.502;16.732;2022-09-03T07:02:22;17.63;55.09
72320;SHT30;60269;52.502;16.732;2022-09-03T07:06:31;17.79;54.04
72320;SHT30;60269;52.502;16.732;2022-09-03T07:10:09;18.10;53.23
72320;SHT30;60269;52.502;16.732;2022-09-03T07:14:11;18.25;52.27
72320;SHT30;60269;52.502;16.732;2022-09-03T07:17:50;18.49;52.42
72320;SHT30;60269;52.502;16.732;2022-09-03T07:21:49;18.86;50.81
72320;SHT30;60269;52.502;16.732;2022-09-03T07:25:27;19.03;51.20
72320;SHT30;60269;52.502;16.732;2022-09-03T07:29:26;19.32;50.80
72320;SHT30;60269;52.502;16.732;2022-09-03T07:33:27;19.13;49.76
72320;SHT30;60269;52.502;16.732;2022-09-03T07:37:06;19.45;49.13
72320;SHT30;60269;52.502;16.732;2022-09-03T07:41:07;19.79;47.75
72320;SHT30;60269;52.502;16.732;2022-09-03T07:44:57;20.05;46.92
72320;SHT30;60269;52.502;16.732;2022-09-03T07:48:59;20.17;45.99
72320;SHT30;60269;52.502;16.732;2022-09-03T07:52:58;20.30;45.42
72320;SHT30;60269;52.502;16.732;2022-09-03T07:56:38;20.50;45.06
72320;SHT30;60269;52.502;16.732;2022-09-03T08:00:37;21.03;44.65
72320;SHT30;60269;52.502;16.732;2022-09-03T08:04:36;21.54;43.82
72320;SHT30;60269;52.502;16.732;2022-09-03T08:08:35;21.74;42.73
72320;SHT30;60269;52.502;16.732;2022-09-03T08:12:14;21.64;42.14
72320;SHT30;60269;52.502;16.732;2022-09-03T08:16:16;21.73;41.32
72320;SHT30;60269;52.502;16.732;2022-09-03T08:20:15;21.43;43.14
72320;SHT30;60269;52.502;16.732;2022-09-03T08:23:55;21.64;41.35
72320;SHT30;60269;52.502;16.732;2022-09-03T08:27:57;21.94;41.64
72320;SHT30;60269;52.502;16.732;2022-09-03T08:31:35;22.39;39.76
72320;SHT30;60269;52.502;16.732;2022-09-03T08:35:35;22.66;39.54
72320;SHT30;60269;52.502;16.732;2022-09-03T08:39:15;22.87;38.61
72320;SHT30;60269;52.502;16.732;2022-09-03T08:43:14;22.72;38.07
72320;SHT30;60269;52.502;16.732;2022-09-03T08:47:31;22.39;38.24
72320;SHT30;60269;52.502;16.732;2022-09-03T08:51:31;22.48;37.23
72320;SHT30;60269;52.502;16.732;2022-09-03T08:55:36;22.74;37.32
72320;SHT30;60269;52.502;16.732;2022-09-03T08:59:35;23.24;36.32
72320;SHT30;60269;52.502;16.732;2022-09-03T09:07:31;23.34;36.72
72320;SHT30;60269;52.502;16.732;2022-09-03T09:19:43;23.75;34.84
72320;SHT30;60269;52.502;16.732;2022-09-03T09:23:40;24.30;34.75
72320;SHT30;60269;52.502;16.732;2022-09-03T09:27:33;24.16;35.19
72320;SHT30;60269;52.502;16.732;2022-09-03T09:31:18;24.09;34.45
72320;SHT30;60269;52.502;16.732;2022-09-03T09:35:08;24.33;35.08
72320;SHT30;60269;52.502;16.732;2022-09-03T09:38:54;24.40;33.96
72320;SHT30;60269;52.502;16.732;2022-09-03T09:42:47;24.53;34.06
72320;SHT30;60269;52.502;16.732;2022-09-03T09:46:39;24.92;33.40
72320;SHT30;60269;52.502;16.732;2022-09-03T09:50:31;25.05;32.44
72320;SHT30;60269;52.502;16.732;2022-09-03T09:54:18;25.02;32.40
72320;SHT30;60269;52.502;16.732;2022-09-03T09:58:18;25.50;31.78
72320;SHT30;60269;52.502;16.732;2022-09-03T10:02:10;25.57;32.69
72320;SHT30;60269;52.502;16.732;2022-09-03T10:06:08;26.35;31.04
72320;SHT30;60269;52.502;16.732;2022-09-03T10:14:19;25.90;31.83
72320;SHT30;60269;52.502;16.732;2022-09-03T10:18:44;25.70;30.82
72320;SHT30;60269;52.502;16.732;2022-09-03T10:22:25;25.33;31.44
72320;SHT30;60269;52.502;16.732;2022-09-03T10:26:42;25.20;31.48
72320;SHT30;60269;52.502;16.732;2022-09-03T10:30:22;24.96;31.56
72320;SHT30;60269;52.502;16.732;2022-09-03T10:34:31;25.03;31.02
72320;SHT30;60269;52.502;16.732;2022-09-03T10:38:33;26.36;29.23
72320;SHT30;60269;52.502;16.732;2022-09-03T10:42:27;25.88;28.83
72320;SHT30;60269;52.502;16.732;2022-09-03T10:50:51;26.84;28.60
72320;SHT30;60269;52.502;16.732;2022-09-03T10:58:59;26.09;28.75
72320;SHT30;60269;52.502;16.732;2022-09-03T11:02:57;26.11;29.51
72320;SHT30;60269;52.502;16.732;2022-09-03T11:07:12;25.46;29.82
72320;SHT30;60269;52.502;16.732;2022-09-03T11:11:20;26.39;28.82
72320;SHT30;60269;52.502;16.732;2022-09-03T11:19:20;27.52;27.19
72320;SHT30;60269;52.502;16.732;2022-09-03T11:23:08;26.77;27.94
72320;SHT30;60269;52.502;16.732;2022-09-03T11:27:51;25.69;29.46
72320;SHT30;60269;52.502;16.732;2022-09-03T11:31:22;25.39;29.79
72320;SHT30;60269;52.502;16.732;2022-09-03T11:35:28;26.17;28.03
72320;SHT30;60269;52.502;16.732;2022-09-03T11:39:34;28.54;26.63
72320;SHT30;60269;52.502;16.732;2022-09-03T11:43:29;29.66;25.18
72320;SHT30;60269;52.502;16.732;2022-09-03T11:51:30;27.25;26.68
72320;SHT30;60269;52.502;16.732;2022-09-03T11:55:30;28.23;25.04
72320;SHT30;60269;52.502;16.732;2022-09-03T11:59:23;28.67;25.13
72320;SHT30;60269;52.502;16.732;2022-09-03T12:03:12;25.82;29.06
72320;SHT30;60269;52.502;16.732;2022-09-03T12:07:11;27.25;26.44
72320;SHT30;60269;52.502;16.732;2022-09-03T12:19:45;27.46;26.77
72320;SHT30;60269;52.502;16.732;2022-09-03T12:23:39;28.72;25.20
72320;SHT30;60269;52.502;16.732;2022-09-03T12:27:26;28.82;25.94
72320;SHT30;60269;52.502;16.732;2022-09-03T12:31:26;29.54;24.40
72320;SHT30;60269;52.502;16.732;2022-09-03T12:35:22;28.88;24.50
72320;SHT30;60269;52.502;16.732;2022-09-03T12:39:28;28.28;25.63
72320;SHT30;60269;52.502;16.732;2022-09-03T12:43:33;28.27;25.25
72320;SHT30;60269;52.502;16.732;2022-09-03T12:47:27;27.70;25.35
72320;SHT30;60269;52.502;16.732;2022-09-03T12:51:14;27.96;25.72
72320;SHT30;60269;52.502;16.732;2022-09-03T12:55:37;29.29;25.12
72320;SHT30;60269;52.502;16.732;2022-09-03T12:59:20;29.57;24.98
72320;SHT30;60269;52.502;16.732;2022-09-03T13:03:28;29.74;24.75
72320;SHT30;60269;52.502;16.732;2022-09-03T13:07:30;28.37;26.70
72320;SHT30;60269;52.502;16.732;2022-09-03T13:11:32;28.98;26.11
72320;SHT30;60269;52.502;16.732;2022-09-03T13:15:17;30.08;24.51
72320;SHT30;60269;52.502;16.732;2022-09-03T13:23:22;27.89;25.91
72320;SHT30;60269;52.502;16.732;2022-09-03T13:27:38;27.03;27.07
72320;SHT30;60269;52.502;16.732;2022-09-03T13:31:40;28.62;25.79
72320;SHT30;60269;52.502;16.732;2022-09-03T13:35:59;29.51;24.97
72320;SHT30;60269;52.502;16.732;2022-09-03T13:39:47;29.74;24.02
72320;SHT30;60269;52.502;16.732;2022-09-03T13:47:39;29.95;24.00
72320;SHT30;60269;52.502;16.732;2022-09-03T13:51:55;30.08;24.00
72320;SHT30;60269;52.502;16.732;2022-09-03T13:55:46;29.78;24.30
72320;SHT30;60269;52.502;16.732;2022-09-03T14:03:48;28.67;25.83
72320;SHT30;60269;52.502;16.732;2022-09-03T14:15:54;29.63;24.48
72320;SHT30;60269;52.502;16.732;2022-09-03T14:19:56;28.21;25.83
72320;SHT30;60269;52.502;16.732;2022-09-03T14:24:03;28.83;24.44
72320;SHT30;60269;52.502;16.732;2022-09-03T14:27:51;29.88;23.36
72320;SHT30;60269;52.502;16.732;2022-09-03T14:39:58;27.62;25.79
72320;SHT30;60269;52.502;16.732;2022-09-03T14:44:08;28.68;24.43
72320;SHT30;60269;52.502;16.732;2022-09-03T14:48:32;29.03;24.47
72320;SHT30;60269;52.502;16.732;2022-09-03T14:52:58;29.54;24.57
72320;SHT30;60269;52.502;16.732;2022-09-03T14:57:21;29.94;24.11
72320;SHT30;60269;52.502;16.732;2022-09-03T15:01:24;30.33;23.68
72320;SHT30;60269;52.502;16.732;2022-09-03T15:09:39;26.24;27.66
72320;SHT30;60269;52.502;16.732;2022-09-03T15:13:35;25.39;28.78
72320;SHT30;60269;52.502;16.732;2022-09-03T15:17:23;24.72;29.91
72320;SHT30;60269;52.502;16.732;2022-09-03T15:29:41;24.61;30.14
72320;SHT30;60269;52.502;16.732;2022-09-03T15:33:38;24.10;31.24
72320;SHT30;60269;52.502;16.732;2022-09-03T15:37:46;24.72;30.20
72320;SHT30;60269;52.502;16.732;2022-09-03T15:46:08;23.66;32.25
72320;SHT30;60269;52.502;16.732;2022-09-03T15:49:57;23.95;31.44
72320;SHT30;60269;52.502;16.732;2022-09-03T15:54:13;23.34;32.78
72320;SHT30;60269;52.502;16.732;2022-09-03T15:58:51;23.45;33.03
72320;SHT30;60269;52.502;16.732;2022-09-03T16:02:45;23.35;32.91
72320;SHT30;60269;52.502;16.732;2022-09-03T16:15:00;22.11;34.90
72320;SHT30;60269;52.502;16.732;2022-09-03T16:27:01;21.33;37.09
72320;SHT30;60269;52.502;16.732;2022-09-03T16:44:11;23.04;34.32
72320;SHT30;60269;52.502;16.732;2022-09-03T16:55:52;21.74;36.51
72320;SHT30;60269;52.502;16.732;2022-09-03T17:03:55;21.57;36.89
72320;SHT30;60269;52.502;16.732;2022-09-03T17:12:10;20.50;39.27
72320;SHT30;60269;52.502;16.732;2022-09-03T17:24:36;18.87;43.61
72320;SHT30;60269;52.502;16.732;2022-09-03T17:36:58;17.83;45.98
72320;SHT30;60269;52.502;16.732;2022-09-03T17:45:35;17.32;47.30
72320;SHT30;60269;52.502;16.732;2022-09-03T17:49:45;17.05;48.08
72320;SHT30;60269;52.502;16.732;2022-09-03T17:53:33;16.88;48.65
72320;SHT30;60269;52.502;16.732;2022-09-03T17:57:42;16.70;49.52
72320;SHT30;60269;52.502;16.732;2022-09-03T18:01:25;16.47;50.16
72320;SHT30;60269;52.502;16.732;2022-09-03T18:05:31;16.30;50.83
72320;SHT30;60269;52.502;16.732;2022-09-03T18:09:39;16.22;51.12
72320;SHT30;60269;52.502;16.732;2022-09-03T18:17:36;16.12;51.32
72320;SHT30;60269;52.502;16.732;2022-09-03T18:21:25;16.08;51.46
72320;SHT30;60269;52.502;16.732;2022-09-03T18:25:32;15.92;52.00
72320;SHT30;60269;52.502;16.732;2022-09-03T18:29:53;15.74;52.65
72320;SHT30;60269;52.502;16.732;2022-09-03T18:34:03;15.53;53.22
72320;SHT30;60269;52.502;16.732;2022-09-03T18:38:06;15.57;53.19
72320;SHT30;60269;52.502;16.732;2022-09-03T18:42:21;15.41;53.89
72320;SHT30;60269;52.502;16.732;2022-09-03T19:00:12;15.33;55.12
72320;SHT30;60269;52.502;16.732;2022-09-03T19:13:39;15.46;54.95
72320;SHT30;60269;52.502;16.732;2022-09-03T19:18:07;15.50;55.17
72320;SHT30;60269;52.502;16.732;2022-09-03T19:22:12;15.57;54.77
72320;SHT30;60269;52.502;16.732;2022-09-03T19:26:42;15.55;54.42
72320;SHT30;60269;52.502;16.732;2022-09-03T19:35:22;15.67;53.34
72320;SHT30;60269;52.502;16.732;2022-09-03T19:39:40;15.67;52.97
72320;SHT30;60269;52.502;16.732;2022-09-03T19:53:17;15.55;52.50
72320;SHT30;60269;52.502;16.732;2022-09-03T19:57:15;15.51;52.33
72320;SHT30;60269;52.502;16.732;2022-09-03T20:01:36;15.40;52.76
72320;SHT30;60269;52.502;16.732;2022-09-03T20:05:53;15.31;53.01
72320;SHT30;60269;52.502;16.732;2022-09-03T20:10:12;15.23;53.21
72320;SHT30;60269;52.502;16.732;2022-09-03T20:14:00;15.26;52.85
72320;SHT30;60269;52.502;16.732;2022-09-03T20:31:19;14.95;54.02
72320;SHT30;60269;52.502;16.732;2022-09-03T20:35:38;14.98;53.87
72320;SHT30;60269;52.502;16.732;2022-09-03T20:40:20;14.90;54.08
72320;SHT30;60269;52.502;16.732;2022-09-03T20:48:27;14.92;53.79
72320;SHT30;60269;52.502;16.732;2022-09-03T20:52:41;14.85;54.05
72320;SHT30;60269;52.502;16.732;2022-09-03T20:56:44;14.99;53.51
72320;SHT30;60269;52.502;16.732;2022-09-03T21:00:51;15.04;53.05
72320;SHT30;60269;52.502;16.732;2022-09-03T21:09:48;14.98;53.40
72320;SHT30;60269;52.502;16.732;2022-09-03T21:18:19;14.98;53.37
72320;SHT30;60269;52.502;16.732;2022-09-03T21:22:17;14.93;53.41
72320;SHT30;60269;52.502;16.732;2022-09-03T21:26:18;14.89;53.36
72320;SHT30;60269;52.502;16.732;2022-09-03T21:30:18;14.82;53.58
72320;SHT30;60269;52.502;16.732;2022-09-03T21:34:20;14.76;53.47
72320;SHT30;60269;52.502;16.732;2022-09-03T21:38:06;14.67;53.55
72320;SHT30;60269;52.502;16.732;2022-09-03T21:42:10;14.62;53.74
72320;SHT30;60269;52.502;16.732;2022-09-03T21:46:20;14.55;53.92
72320;SHT30;60269;52.502;16.732;2022-09-03T21:50:25;14.58;53.61
72320;SHT30;60269;52.502;16.732;2022-09-03T21:54:27;14.62;53.38
72320;SHT30;60269;52.502;16.732;2022-09-03T22:06:29;14.61;53.55
72320;SHT30;60269;52.502;16.732;2022-09-03T22:10:42;14.59;53.74
72320;SHT30;60269;52.502;16.732;2022-09-03T22:14:25;14.61;53.40
72320;SHT30;60269;52.502;16.732;2022-09-03T22:18:21;14.61;53.50
72320;SHT30;60269;52.502;16.732;2022-09-03T22:22:01;14.67;53.20
72320;SHT30;60269;52.502;16.732;2022-09-03T22:26:07;14.65;53.41
72320;SHT30;60269;52.502;16.732;2022-09-03T22:38:55;14.62;53.33
72320;SHT30;60269;52.502;16.732;2022-09-03T22:42:55;14.59;53.73
72320;SHT30;60269;52.502;16.732;2022-09-03T22:50:50;14.58;53.67
72320;SHT30;60269;52.502;16.732;2022-09-03T22:55:19;14.51;54.09
72320;SHT30;60269;52.502;16.732;2022-09-03T22:59:17;14.54;54.05
72320;SHT30;60269;52.502;16.732;2022-09-03T23:03:24;14.49;54.22
72320;SHT30;60269;52.502;16.732;2022-09-03T23:15:30;14.35;55.27
72320;SHT30;60269;52.502;16.732;2022-09-03T23:19:18;14.31;55.55
72320;SHT30;60269;52.502;16.732;2022-09-03T23:23:28;14.27;56.06
72320;SHT30;60269;52.502;16.732;2022-09-03T23:27:33;14.18;56.45
72320;SHT30;60269;52.502;16.732;2022-09-03T23:31:18;14.16;56.80
72320;SHT30;60269;52.502;16.732;2022-09-03T23:35:18;14.17;57.04
72320;SHT30;60269;52.502;16.732;2022-09-03T23:47:55;14.07;57.78
72320;SHT30;60269;52.502;16.732;2022-09-03T23:56:23;14.06;58.19
